PVG9597 LETO-MKJP
Flight info
| Callsign | PVG9597 |
|---|---|
| Flight time | N/A |
| Altitude | 36000 |
| Route | BARDI DCT RIVRO DCT DIRMA DCT DETOX/M083F360 DCT 40N020W 35N030W/M083F380 30N040W 25N050W/M083F400 23N055W 21N060W/N0477F400 DCT DDP G633 MELLA UT15 CDO UL577 KEBET UG633 MLY |
| Aircraft | B772/H-SDFGHIJ3J4J5M1P2RWXYZ/LB1D1 |
Departure
| Time | N/A |
|---|---|
| Airport | Madrid–Torrejón Airport / Torrejón Air Base (LETO) |
Arrival
| Time | 2026-05-03 20:45 |
|---|---|
| Airport | Norman Manley International Airport (MKJP) |
| Time | Latitude | Longitude | Altitude | Speed | Heading |
|---|---|---|---|---|---|
| 2026-05-03 20:15 | 18.32014 | -74.11083 | 40018 ft | 447 kts | 264° |
| 2026-05-03 20:15 | 18.31356 | -74.17551 | 40025 ft | 448 kts | 264° |
| 2026-05-03 20:16 | 18.30690 | -74.24068 | 40011 ft | 448 kts | 264° |
| 2026-05-03 20:16 | 18.30022 | -74.30590 | 40009 ft | 448 kts | 264° |
| 2026-05-03 20:17 | 18.29351 | -74.37109 | 40006 ft | 448 kts | 264° |
| 2026-05-03 20:17 | 18.28685 | -74.43565 | 40008 ft | 448 kts | 264° |
| 2026-05-03 20:18 | 18.28009 | -74.50090 | 40012 ft | 448 kts | 264° |
| 2026-05-03 20:18 | 18.27334 | -74.56583 | 39910 ft | 444 kts | 264° |
| 2026-05-03 20:18 | 18.27000 | -74.59789 | 39578 ft | 438 kts | 264° |
| 2026-05-03 20:19 | 18.26667 | -74.62970 | 39161 ft | 435 kts | 264° |
| 2026-05-03 20:19 | 18.26338 | -74.66117 | 38676 ft | 434 kts | 264° |
| 2026-05-03 20:19 | 18.26009 | -74.69268 | 38125 ft | 432 kts | 264° |
| 2026-05-03 20:19 | 18.25685 | -74.72356 | 37619 ft | 430 kts | 264° |
| 2026-05-03 20:20 | 18.25411 | -74.74968 | 37193 ft | 429 kts | 264° |
| 2026-05-03 20:20 | 18.25084 | -74.78085 | 36697 ft | 430 kts | 264° |
| 2026-05-03 20:20 | 18.24754 | -74.81219 | 36227 ft | 434 kts | 264° |
| 2026-05-03 20:20 | 18.24420 | -74.84394 | 35759 ft | 438 kts | 263° |
| 2026-05-03 20:21 | 18.24085 | -74.87576 | 35294 ft | 438 kts | 263° |
| 2026-05-03 20:21 | 18.23749 | -74.90749 | 34830 ft | 436 kts | 263° |
| 2026-05-03 20:21 | 18.23414 | -74.93915 | 34378 ft | 434 kts | 263° |
| 2026-05-03 20:21 | 18.23080 | -74.97060 | 33918 ft | 432 kts | 263° |
| 2026-05-03 20:22 | 18.22750 | -75.00158 | 33409 ft | 431 kts | 263° |
| 2026-05-03 20:22 | 18.22418 | -75.03274 | 32932 ft | 428 kts | 263° |
| 2026-05-03 20:22 | 18.22087 | -75.06380 | 32463 ft | 426 kts | 263° |
| 2026-05-03 20:22 | 18.21757 | -75.09471 | 31998 ft | 424 kts | 263° |
| 2026-05-03 20:23 | 18.21428 | -75.12544 | 31538 ft | 422 kts | 262° |
| 2026-05-03 20:23 | 18.21101 | -75.15602 | 31093 ft | 419 kts | 262° |
| 2026-05-03 20:23 | 18.20775 | -75.18640 | 30648 ft | 417 kts | 262° |
| 2026-05-03 20:23 | 18.20451 | -75.21656 | 30222 ft | 415 kts | 262° |
| 2026-05-03 20:24 | 18.20130 | -75.24634 | 29744 ft | 414 kts | 261° |
| 2026-05-03 20:24 | 18.19807 | -75.27632 | 29238 ft | 412 kts | 261° |
| 2026-05-03 20:24 | 18.19485 | -75.30612 | 28757 ft | 410 kts | 261° |
| 2026-05-03 20:24 | 18.19162 | -75.33593 | 28258 ft | 409 kts | 262° |
| 2026-05-03 20:25 | 18.18842 | -75.36557 | 27779 ft | 408 kts | 262° |
| 2026-05-03 20:25 | 18.18522 | -75.39513 | 27285 ft | 406 kts | 261° |
| 2026-05-03 20:25 | 18.18202 | -75.42457 | 26805 ft | 404 kts | 261° |
| 2026-05-03 20:25 | 18.17884 | -75.45381 | 26331 ft | 402 kts | 262° |
| 2026-05-03 20:26 | 18.17568 | -75.48293 | 25865 ft | 400 kts | 261° |
| 2026-05-03 20:26 | 18.17252 | -75.51194 | 25414 ft | 398 kts | 261° |
| 2026-05-03 20:26 | 18.16936 | -75.54083 | 24963 ft | 397 kts | 261° |
| 2026-05-03 20:26 | 18.16623 | -75.56952 | 24522 ft | 395 kts | 261° |
| 2026-05-03 20:27 | 18.16313 | -75.59777 | 24086 ft | 393 kts | 261° |
| 2026-05-03 20:27 | 18.16000 | -75.62633 | 23640 ft | 392 kts | 261° |
| 2026-05-03 20:27 | 18.15689 | -75.65468 | 23160 ft | 390 kts | 261° |
| 2026-05-03 20:27 | 18.15378 | -75.68299 | 22650 ft | 389 kts | 261° |
| 2026-05-03 20:28 | 18.15068 | -75.71112 | 22156 ft | 387 kts | 261° |
| 2026-05-03 20:28 | 18.14760 | -75.73915 | 21667 ft | 385 kts | 261° |
| 2026-05-03 20:28 | 18.14452 | -75.76707 | 21180 ft | 382 kts | 261° |
| 2026-05-03 20:28 | 18.14146 | -75.79476 | 20726 ft | 380 kts | 262° |
| 2026-05-03 20:29 | 18.13845 | -75.82194 | 20246 ft | 378 kts | 262° |
| 2026-05-03 20:29 | 18.13542 | -75.84934 | 19787 ft | 376 kts | 262° |
| 2026-05-03 20:29 | 18.13240 | -75.87655 | 19338 ft | 374 kts | 262° |
| 2026-05-03 20:29 | 18.12940 | -75.90364 | 18890 ft | 372 kts | 262° |
| 2026-05-03 20:30 | 18.12641 | -75.93049 | 18454 ft | 370 kts | 262° |
| 2026-05-03 20:30 | 18.12343 | -75.95730 | 17968 ft | 367 kts | 262° |
| 2026-05-03 20:30 | 18.12046 | -75.98390 | 17466 ft | 365 kts | 262° |
| 2026-05-03 20:30 | 18.11751 | -76.01035 | 16960 ft | 363 kts | 262° |
| 2026-05-03 20:31 | 18.11456 | -76.03669 | 16487 ft | 359 kts | 262° |
| 2026-05-03 20:31 | 18.11172 | -76.06206 | 16017 ft | 340 kts | 263° |
| 2026-05-03 20:31 | 18.10906 | -76.08575 | 15572 ft | 325 kts | 263° |
| 2026-05-03 20:31 | 18.10646 | -76.10878 | 15133 ft | 312 kts | 263° |
| 2026-05-03 20:32 | 18.10392 | -76.13125 | 14720 ft | 309 kts | 263° |
| 2026-05-03 20:32 | 18.10138 | -76.15371 | 14306 ft | 310 kts | 263° |
| 2026-05-03 20:32 | 18.09884 | -76.17627 | 13905 ft | 312 kts | 263° |
| 2026-05-03 20:32 | 18.09630 | -76.19889 | 13472 ft | 313 kts | 263° |
| 2026-05-03 20:33 | 18.09374 | -76.22162 | 13032 ft | 314 kts | 263° |
| 2026-05-03 20:33 | 18.09117 | -76.24448 | 12585 ft | 314 kts | 263° |
| 2026-05-03 20:33 | 18.08864 | -76.26692 | 12154 ft | 315 kts | 263° |
| 2026-05-03 20:33 | 18.08606 | -76.28975 | 11724 ft | 315 kts | 263° |
| 2026-05-03 20:34 | 18.08349 | -76.31253 | 11301 ft | 316 kts | 263° |
| 2026-05-03 20:34 | 18.08082 | -76.33542 | 10882 ft | 314 kts | 260° |
| 2026-05-03 20:34 | 18.07466 | -76.35689 | 10464 ft | 308 kts | 246° |
| 2026-05-03 20:34 | 18.06623 | -76.37794 | 10041 ft | 309 kts | 246° |
| 2026-05-03 20:35 | 18.05797 | -76.39881 | 9598 ft | 310 kts | 246° |
| 2026-05-03 20:35 | 18.04969 | -76.41981 | 9162 ft | 311 kts | 246° |
| 2026-05-03 20:35 | 18.04150 | -76.44052 | 8779 ft | 311 kts | 246° |
| 2026-05-03 20:35 | 18.03331 | -76.46150 | 8424 ft | 310 kts | 246° |
| 2026-05-03 20:36 | 18.02522 | -76.48251 | 8100 ft | 308 kts | 246° |
| 2026-05-03 20:36 | 18.01727 | -76.50303 | 7845 ft | 304 kts | 246° |
| 2026-05-03 20:36 | 18.00926 | -76.52342 | 7585 ft | 298 kts | 246° |
| 2026-05-03 20:36 | 18.00137 | -76.54324 | 7366 ft | 294 kts | 246° |
| 2026-05-03 20:37 | 17.99344 | -76.56304 | 7119 ft | 293 kts | 246° |
| 2026-05-03 20:37 | 17.98548 | -76.58279 | 6869 ft | 292 kts | 246° |
| 2026-05-03 20:37 | 17.97822 | -76.60218 | 6615 ft | 284 kts | 255° |
| 2026-05-03 20:37 | 17.97727 | -76.62271 | 6363 ft | 287 kts | 280° |
| 2026-05-03 20:38 | 17.98202 | -76.64322 | 6220 ft | 294 kts | 285° |
| 2026-05-03 20:38 | 17.98749 | -76.66397 | 6057 ft | 293 kts | 286° |
| 2026-05-03 20:38 | 17.99303 | -76.68439 | 5807 ft | 287 kts | 286° |
| 2026-05-03 20:38 | 17.99856 | -76.70426 | 5600 ft | 280 kts | 287° |
| 2026-05-03 20:39 | 18.00485 | -76.72386 | 5426 ft | 285 kts | 290° |
| 2026-05-03 20:39 | 18.01184 | -76.74354 | 5253 ft | 287 kts | 291° |
| 2026-05-03 20:39 | 18.01872 | -76.76289 | 5069 ft | 278 kts | 291° |
| 2026-05-03 20:39 | 18.02512 | -76.78102 | 4824 ft | 260 kts | 291° |
| 2026-05-03 20:40 | 18.03121 | -76.79827 | 4574 ft | 243 kts | 291° |
| 2026-05-03 20:40 | 18.03688 | -76.81439 | 4321 ft | 228 kts | 291° |
| 2026-05-03 20:40 | 18.04210 | -76.82932 | 4140 ft | 211 kts | 288° |
| 2026-05-03 20:40 | 18.04248 | -76.84392 | 3991 ft | 192 kts | 251° |
| 2026-05-03 20:41 | 18.03542 | -76.85487 | 3578 ft | 177 kts | 215° |
| 2026-05-03 20:41 | 18.02500 | -76.86038 | 3196 ft | 160 kts | 182° |
| 2026-05-03 20:41 | 18.01567 | -76.85812 | 3080 ft | 134 kts | 134° |
| 2026-05-03 20:41 | 18.00972 | -76.85045 | 2711 ft | 147 kts | 149° |
| 2026-05-03 20:42 | 17.99980 | -76.84746 | 2279 ft | 143 kts | 163° |
| 2026-05-03 20:42 | 17.99060 | -76.84525 | 2032 ft | 133 kts | 162° |
| 2026-05-03 20:42 | 17.98195 | -76.84286 | 1810 ft | 130 kts | 161° |
| 2026-05-03 20:42 | 17.97331 | -76.84044 | 1433 ft | 127 kts | 157° |
| 2026-05-03 20:43 | 17.96525 | -76.83681 | 1275 ft | 129 kts | 146° |
| 2026-05-03 20:43 | 17.95753 | -76.83224 | 1043 ft | 126 kts | 136° |
| 2026-05-03 20:43 | 17.95155 | -76.82567 | 790 ft | 122 kts | 124° |
| 2026-05-03 20:43 | 17.94770 | -76.81801 | 467 ft | 113 kts | 115° |
| 2026-05-03 20:44 | 17.94479 | -76.81053 | 268 ft | 113 kts | 118° |
| 2026-05-03 20:44 | 17.94162 | -76.80270 | 132 ft | 120 kts | 118° |
| 2026-05-03 20:44 | 17.93837 | -76.79441 | 27 ft | 118 kts | 116° |
| 2026-05-03 20:44 | 17.93565 | -76.78748 | 20 ft | 86 kts | 111° |
| 2026-05-03 20:45 | 17.93381 | -76.78283 | 26 ft | 49 kts | 112° |
| 2026-05-03 20:45 | 17.93293 | -76.78050 | 30 ft | 31 kts | 112° |
| 2026-05-03 20:45 | 17.93223 | -76.77870 | 29 ft | 27 kts | 108° |
| 2026-05-03 20:45 | 17.93245 | -76.77759 | 29 ft | 16 kts | 31° |
| 2026-05-03 20:46 | 17.93338 | -76.77764 | 28 ft | 16 kts | 290° |
| 2026-05-03 20:46 | 17.93350 | -76.77830 | 28 ft | 7 kts | 323° |
| 2026-05-03 20:46 | 17.93387 | -76.77866 | 27 ft | 8 kts | 299° |
| 2026-05-03 20:46 | 17.93415 | -76.77910 | 26 ft | 3 kts | 318° |
| 2026-05-03 20:47 | 17.93426 | -76.77916 | 25 ft | 3 kts | 339° |
| 2026-05-03 20:47 | 17.93448 | -76.77918 | 23 ft | 3 kts | 10° |
| 2026-05-03 20:47 | 17.93467 | -76.77902 | 25 ft | 4 kts | 45° |
| 2026-05-03 20:47 | 17.93485 | -76.77880 | 28 ft | 4 kts | 53° |
| 2026-05-03 20:48 | 17.93490 | -76.77872 | 24 ft | 1 kts | 55° |
| 2026-05-03 20:48 | 17.93495 | -76.77864 | 26 ft | 0 kts | 57° |
| 2026-05-03 20:48 | 17.93500 | -76.77855 | 27 ft | 1 kts | 57° |
| 2026-05-03 20:48 | 17.93504 | -76.77849 | 25 ft | 0 kts | 56° |
| 2026-05-03 20:49 | 17.93506 | -76.77846 | 27 ft | 0 kts | 56° |